sensor_id;sensor_type;location;lat;lon;timestamp;P1;durP1;ratioP1;P2;durP2;ratioP2
5890;SDS011;2971;52.420;7.080;2023-02-28T00:01:01;10.13;;;6.37;;
5890;SDS011;2971;52.420;7.080;2023-02-28T00:03:26;9.83;;;6.30;;
5890;SDS011;2971;52.420;7.080;2023-02-28T00:05:52;9.77;;;7.07;;
5890;SDS011;2971;52.420;7.080;2023-02-28T00:08:17;7.03;;;6.03;;
5890;SDS011;2971;52.420;7.080;2023-02-28T00:10:43;8.57;;;6.30;;
5890;SDS011;2971;52.420;7.080;2023-02-28T00:13:08;8.20;;;5.97;;
5890;SDS011;2971;52.420;7.080;2023-02-28T00:15:34;9.93;;;6.13;;
5890;SDS011;2971;52.420;7.080;2023-02-28T00:17:59;9.07;;;6.50;;
5890;SDS011;2971;52.420;7.080;2023-02-28T00:20:25;9.77;;;6.67;;
5890;SDS011;2971;52.420;7.080;2023-02-28T00:22:51;8.37;;;6.43;;
5890;SDS011;2971;52.420;7.080;2023-02-28T00:25:22;7.00;;;6.30;;
5890;SDS011;2971;52.420;7.080;2023-02-28T00:27:48;10.43;;;6.23;;
5890;SDS011;2971;52.420;7.080;2023-02-28T00:30:15;7.80;;;6.60;;
5890;SDS011;2971;52.420;7.080;2023-02-28T00:32:41;8.07;;;6.73;;
5890;SDS011;2971;52.420;7.080;2023-02-28T00:35:07;9.40;;;7.17;;
5890;SDS011;2971;52.420;7.080;2023-02-28T00:37:33;10.03;;;7.27;;
5890;SDS011;2971;52.420;7.080;2023-02-28T00:39:59;12.57;;;7.70;;
5890;SDS011;2971;52.420;7.080;2023-02-28T00:42:25;10.80;;;6.90;;
5890;SDS011;2971;52.420;7.080;2023-02-28T00:44:50;7.90;;;7.00;;
5890;SDS011;2971;52.420;7.080;2023-02-28T00:47:16;10.80;;;7.50;;
5890;SDS011;2971;52.420;7.080;2023-02-28T00:49:41;8.93;;;7.33;;
5890;SDS011;2971;52.420;7.080;2023-02-28T00:52:07;7.93;;;7.10;;
5890;SDS011;2971;52.420;7.080;2023-02-28T00:54:32;13.00;;;7.70;;
5890;SDS011;2971;52.420;7.080;2023-02-28T00:56:58;9.30;;;7.77;;
5890;SDS011;2971;52.420;7.080;2023-02-28T00:59:24;10.40;;;7.80;;
5890;SDS011;2971;52.420;7.080;2023-02-28T01:01:50;10.17;;;7.13;;
5890;SDS011;2971;52.420;7.080;2023-02-28T01:04:15;9.70;;;7.57;;
5890;SDS011;2971;52.420;7.080;2023-02-28T01:06:41;10.07;;;7.77;;
5890;SDS011;2971;52.420;7.080;2023-02-28T01:09:06;10.53;;;8.20;;
5890;SDS011;2971;52.420;7.080;2023-02-28T01:11:32;11.03;;;7.83;;
5890;SDS011;2971;52.420;7.080;2023-02-28T01:13:58;9.10;;;7.60;;
5890;SDS011;2971;52.420;7.080;2023-02-28T01:16:24;10.50;;;7.83;;
5890;SDS011;2971;52.420;7.080;2023-02-28T01:18:49;11.00;;;7.20;;
5890;SDS011;2971;52.420;7.080;2023-02-28T01:21:16;12.57;;;7.40;;
5890;SDS011;2971;52.420;7.080;2023-02-28T01:23:43;9.57;;;7.40;;
5890;SDS011;2971;52.420;7.080;2023-02-28T01:26:16;10.20;;;7.63;;
5890;SDS011;2971;52.420;7.080;2023-02-28T01:28:44;10.10;;;7.80;;
5890;SDS011;2971;52.420;7.080;2023-02-28T01:31:10;10.87;;;7.00;;
5890;SDS011;2971;52.420;7.080;2023-02-28T01:33:36;8.23;;;7.07;;
5890;SDS011;2971;52.420;7.080;2023-02-28T01:36:03;11.30;;;8.17;;
5890;SDS011;2971;52.420;7.080;2023-02-28T01:38:33;10.53;;;7.67;;
5890;SDS011;2971;52.420;7.080;2023-02-28T01:40:59;8.97;;;7.27;;
5890;SDS011;2971;52.420;7.080;2023-02-28T01:43:28;10.10;;;7.37;;
5890;SDS011;2971;52.420;7.080;2023-02-28T01:45:56;8.63;;;6.83;;
5890;SDS011;2971;52.420;7.080;2023-02-28T01:48:29;9.40;;;7.43;;
5890;SDS011;2971;52.420;7.080;2023-02-28T01:50:57;8.63;;;7.60;;
5890;SDS011;2971;52.420;7.080;2023-02-28T01:53:36;9.87;;;7.33;;
5890;SDS011;2971;52.420;7.080;2023-02-28T01:56:05;11.07;;;7.70;;
5890;SDS011;2971;52.420;7.080;2023-02-28T01:58:31;9.43;;;7.77;;
5890;SDS011;2971;52.420;7.080;2023-02-28T02:00:56;11.33;;;7.17;;
5890;SDS011;2971;52.420;7.080;2023-02-28T02:03:22;10.47;;;7.43;;
5890;SDS011;2971;52.420;7.080;2023-02-28T02:05:48;10.37;;;7.50;;
5890;SDS011;2971;52.420;7.080;2023-02-28T02:08:17;10.57;;;7.53;;
5890;SDS011;2971;52.420;7.080;2023-02-28T02:18:55;9.87;;;7.53;;
5890;SDS011;2971;52.420;7.080;2023-02-28T02:35:24;9.70;;;8.10;;
5890;SDS011;2971;52.420;7.080;2023-02-28T02:40:23;12.20;;;7.73;;
5890;SDS011;2971;52.420;7.080;2023-02-28T02:43:10;9.47;;;8.20;;
5890;SDS011;2971;52.420;7.080;2023-02-28T02:48:44;13.37;;;7.67;;
5890;SDS011;2971;52.420;7.080;2023-02-28T02:51:12;11.47;;;7.40;;
5890;SDS011;2971;52.420;7.080;2023-02-28T02:53:46;10.17;;;7.27;;
5890;SDS011;2971;52.420;7.080;2023-02-28T02:56:14;9.67;;;7.93;;
5890;SDS011;2971;52.420;7.080;2023-02-28T02:58:42;9.73;;;7.90;;
5890;SDS011;2971;52.420;7.080;2023-02-28T03:01:09;9.00;;;7.93;;
5890;SDS011;2971;52.420;7.080;2023-02-28T03:03:37;9.03;;;7.40;;
5890;SDS011;2971;52.420;7.080;2023-02-28T03:06:03;8.97;;;7.27;;
5890;SDS011;2971;52.420;7.080;2023-02-28T03:08:30;14.27;;;8.10;;
5890;SDS011;2971;52.420;7.080;2023-02-28T03:11:00;10.37;;;7.43;;
5890;SDS011;2971;52.420;7.080;2023-02-28T03:13:47;8.17;;;7.30;;
5890;SDS011;2971;52.420;7.080;2023-02-28T03:21:51;10.20;;;7.20;;
5890;SDS011;2971;52.420;7.080;2023-02-28T03:26:52;9.43;;;7.07;;
5890;SDS011;2971;52.420;7.080;2023-02-28T03:32:00;10.57;;;8.17;;
5890;SDS011;2971;52.420;7.080;2023-02-28T03:37:40;13.63;;;9.40;;
5890;SDS011;2971;52.420;7.080;2023-02-28T03:40:11;12.90;;;8.47;;
5890;SDS011;2971;52.420;7.080;2023-02-28T03:42:39;12.40;;;9.23;;
5890;SDS011;2971;52.420;7.080;2023-02-28T03:45:11;16.30;;;10.53;;
5890;SDS011;2971;52.420;7.080;2023-02-28T03:48:23;21.13;;;12.80;;
5890;SDS011;2971;52.420;7.080;2023-02-28T03:53:03;15.93;;;10.97;;
5890;SDS011;2971;52.420;7.080;2023-02-28T03:55:31;15.23;;;10.30;;
5890;SDS011;2971;52.420;7.080;2023-02-28T04:00:44;15.07;;;10.03;;
5890;SDS011;2971;52.420;7.080;2023-02-28T04:03:11;11.87;;;9.53;;
5890;SDS011;2971;52.420;7.080;2023-02-28T04:06:13;16.67;;;10.27;;
5890;SDS011;2971;52.420;7.080;2023-02-28T04:08:29;12.23;;;9.03;;
5890;SDS011;2971;52.420;7.080;2023-02-28T04:11:00;14.40;;;10.00;;
5890;SDS011;2971;52.420;7.080;2023-02-28T04:13:31;14.83;;;10.23;;
5890;SDS011;2971;52.420;7.080;2023-02-28T04:15:57;19.60;;;12.13;;
5890;SDS011;2971;52.420;7.080;2023-02-28T04:18:22;28.93;;;18.57;;
5890;SDS011;2971;52.420;7.080;2023-02-28T04:20:48;35.97;;;22.33;;
5890;SDS011;2971;52.420;7.080;2023-02-28T04:23:13;24.53;;;16.70;;
5890;SDS011;2971;52.420;7.080;2023-02-28T04:25:38;27.50;;;18.07;;
5890;SDS011;2971;52.420;7.080;2023-02-28T04:28:05;23.63;;;16.10;;
5890;SDS011;2971;52.420;7.080;2023-02-28T04:30:31;28.43;;;15.87;;
5890;SDS011;2971;52.420;7.080;2023-02-28T04:32:57;21.43;;;13.67;;
5890;SDS011;2971;52.420;7.080;2023-02-28T04:35:23;19.87;;;13.47;;
5890;SDS011;2971;52.420;7.080;2023-02-28T04:37:48;15.73;;;10.37;;
5890;SDS011;2971;52.420;7.080;2023-02-28T04:40:14;12.27;;;9.93;;
5890;SDS011;2971;52.420;7.080;2023-02-28T04:42:39;14.17;;;9.93;;
5890;SDS011;2971;52.420;7.080;2023-02-28T04:45:05;13.80;;;10.00;;
5890;SDS011;2971;52.420;7.080;2023-02-28T04:47:31;12.40;;;9.40;;
5890;SDS011;2971;52.420;7.080;2023-02-28T04:49:56;12.90;;;10.17;;
5890;SDS011;2971;52.420;7.080;2023-02-28T04:52:22;13.23;;;9.43;;
5890;SDS011;2971;52.420;7.080;2023-02-28T04:54:47;10.97;;;8.50;;
5890;SDS011;2971;52.420;7.080;2023-02-28T04:57:12;12.63;;;8.77;;
5890;SDS011;2971;52.420;7.080;2023-02-28T04:59:38;9.87;;;8.07;;
5890;SDS011;2971;52.420;7.080;2023-02-28T05:02:03;10.87;;;8.03;;
5890;SDS011;2971;52.420;7.080;2023-02-28T05:04:35;12.10;;;8.53;;
5890;SDS011;2971;52.420;7.080;2023-02-28T05:07:01;10.80;;;8.67;;
5890;SDS011;2971;52.420;7.080;2023-02-28T05:09:27;12.00;;;8.70;;
5890;SDS011;2971;52.420;7.080;2023-02-28T05:11:53;11.83;;;8.33;;
5890;SDS011;2971;52.420;7.080;2023-02-28T05:14:19;14.33;;;8.53;;
5890;SDS011;2971;52.420;7.080;2023-02-28T05:16:44;12.77;;;8.80;;
5890;SDS011;2971;52.420;7.080;2023-02-28T05:19:09;12.50;;;9.40;;
5890;SDS011;2971;52.420;7.080;2023-02-28T05:21:38;12.53;;;9.13;;
5890;SDS011;2971;52.420;7.080;2023-02-28T05:24:06;12.20;;;8.57;;
5890;SDS011;2971;52.420;7.080;2023-02-28T05:26:35;13.00;;;9.00;;
5890;SDS011;2971;52.420;7.080;2023-02-28T05:29:04;11.27;;;8.70;;
5890;SDS011;2971;52.420;7.080;2023-02-28T05:31:30;9.53;;;8.17;;
5890;SDS011;2971;52.420;7.080;2023-02-28T05:33:55;14.50;;;8.57;;
5890;SDS011;2971;52.420;7.080;2023-02-28T05:36:21;11.87;;;8.63;;
5890;SDS011;2971;52.420;7.080;2023-02-28T05:38:47;9.90;;;8.40;;
5890;SDS011;2971;52.420;7.080;2023-02-28T05:41:13;9.83;;;8.43;;
5890;SDS011;2971;52.420;7.080;2023-02-28T05:43:38;12.00;;;9.20;;
5890;SDS011;2971;52.420;7.080;2023-02-28T05:46:07;14.70;;;9.30;;
5890;SDS011;2971;52.420;7.080;2023-02-28T05:48:34;11.53;;;9.03;;
5890;SDS011;2971;52.420;7.080;2023-02-28T05:51:00;13.17;;;8.50;;
5890;SDS011;2971;52.420;7.080;2023-02-28T05:53:26;10.93;;;8.50;;
5890;SDS011;2971;52.420;7.080;2023-02-28T05:55:51;11.40;;;8.70;;
5890;SDS011;2971;52.420;7.080;2023-02-28T05:58:17;11.00;;;8.53;;
5890;SDS011;2971;52.420;7.080;2023-02-28T06:00:43;13.50;;;9.63;;
5890;SDS011;2971;52.420;7.080;2023-02-28T06:03:09;12.83;;;8.43;;
5890;SDS011;2971;52.420;7.080;2023-02-28T06:05:34;9.83;;;8.57;;
5890;SDS011;2971;52.420;7.080;2023-02-28T06:07:59;12.97;;;8.80;;
5890;SDS011;2971;52.420;7.080;2023-02-28T06:10:25;10.57;;;8.23;;
5890;SDS011;2971;52.420;7.080;2023-02-28T06:12:50;10.23;;;8.30;;
5890;SDS011;2971;52.420;7.080;2023-02-28T06:15:16;11.03;;;8.20;;
5890;SDS011;2971;52.420;7.080;2023-02-28T06:17:42;10.37;;;7.63;;
5890;SDS011;2971;52.420;7.080;2023-02-28T06:20:08;10.63;;;8.90;;
5890;SDS011;2971;52.420;7.080;2023-02-28T06:22:35;12.77;;;8.53;;
5890;SDS011;2971;52.420;7.080;2023-02-28T06:25:02;12.30;;;8.80;;
5890;SDS011;2971;52.420;7.080;2023-02-28T06:27:28;12.47;;;8.00;;
5890;SDS011;2971;52.420;7.080;2023-02-28T06:29:54;10.77;;;7.67;;
5890;SDS011;2971;52.420;7.080;2023-02-28T06:32:20;10.13;;;7.90;;
5890;SDS011;2971;52.420;7.080;2023-02-28T06:34:45;12.00;;;7.60;;
5890;SDS011;2971;52.420;7.080;2023-02-28T06:37:11;11.70;;;8.40;;
5890;SDS011;2971;52.420;7.080;2023-02-28T06:39:36;9.47;;;7.53;;
5890;SDS011;2971;52.420;7.080;2023-02-28T06:42:02;11.03;;;8.20;;
5890;SDS011;2971;52.420;7.080;2023-02-28T06:44:28;9.10;;;7.80;;
5890;SDS011;2971;52.420;7.080;2023-02-28T06:46:59;8.37;;;7.20;;
5890;SDS011;2971;52.420;7.080;2023-02-28T06:49:32;12.63;;;7.60;;
5890;SDS011;2971;52.420;7.080;2023-02-28T06:51:59;10.83;;;7.10;;
5890;SDS011;2971;52.420;7.080;2023-02-28T06:54:24;9.43;;;7.13;;
5890;SDS011;2971;52.420;7.080;2023-02-28T06:56:50;10.67;;;7.33;;
5890;SDS011;2971;52.420;7.080;2023-02-28T06:59:16;8.83;;;7.07;;
5890;SDS011;2971;52.420;7.080;2023-02-28T07:01:41;10.43;;;7.33;;
5890;SDS011;2971;52.420;7.080;2023-02-28T07:04:07;8.57;;;6.97;;
5890;SDS011;2971;52.420;7.080;2023-02-28T07:06:32;9.93;;;6.80;;
5890;SDS011;2971;52.420;7.080;2023-02-28T07:08:58;8.83;;;6.97;;
5890;SDS011;2971;52.420;7.080;2023-02-28T07:11:25;10.57;;;6.67;;
5890;SDS011;2971;52.420;7.080;2023-02-28T07:13:54;10.03;;;6.13;;
5890;SDS011;2971;52.420;7.080;2023-02-28T07:16:21;8.17;;;6.00;;
5890;SDS011;2971;52.420;7.080;2023-02-28T07:18:47;7.53;;;5.80;;
5890;SDS011;2971;52.420;7.080;2023-02-28T07:21:13;9.33;;;5.97;;
5890;SDS011;2971;52.420;7.080;2023-02-28T07:23:39;9.90;;;6.17;;
5890;SDS011;2971;52.420;7.080;2023-02-28T07:26:05;7.90;;;5.57;;
5890;SDS011;2971;52.420;7.080;2023-02-28T07:28:31;7.37;;;5.53;;
5890;SDS011;2971;52.420;7.080;2023-02-28T07:30:57;8.27;;;5.90;;
5890;SDS011;2971;52.420;7.080;2023-02-28T07:33:28;7.67;;;5.37;;
5890;SDS011;2971;52.420;7.080;2023-02-28T07:35:59;6.13;;;4.83;;
5890;SDS011;2971;52.420;7.080;2023-02-28T07:38:26;7.43;;;5.10;;
5890;SDS011;2971;52.420;7.080;2023-02-28T07:40:51;7.33;;;5.50;;
5890;SDS011;2971;52.420;7.080;2023-02-28T07:43:17;7.90;;;5.37;;
5890;SDS011;2971;52.420;7.080;2023-02-28T07:45:42;7.27;;;5.23;;
5890;SDS011;2971;52.420;7.080;2023-02-28T07:48:07;8.57;;;5.20;;
5890;SDS011;2971;52.420;7.080;2023-02-28T07:50:34;8.93;;;5.30;;
5890;SDS011;2971;52.420;7.080;2023-02-28T07:53:00;7.37;;;4.97;;
5890;SDS011;2971;52.420;7.080;2023-02-28T07:55:26;6.57;;;4.70;;
5890;SDS011;2971;52.420;7.080;2023-02-28T07:57:51;5.90;;;4.07;;
5890;SDS011;2971;52.420;7.080;2023-02-28T08:00:17;5.87;;;4.37;;
5890;SDS011;2971;52.420;7.080;2023-02-28T08:02:42;4.93;;;3.93;;
5890;SDS011;2971;52.420;7.080;2023-02-28T08:05:08;4.40;;;3.23;;
5890;SDS011;2971;52.420;7.080;2023-02-28T08:07:33;5.13;;;3.67;;
5890;SDS011;2971;52.420;7.080;2023-02-28T08:09:59;4.47;;;3.20;;
5890;SDS011;2971;52.420;7.080;2023-02-28T08:12:24;4.47;;;3.60;;
5890;SDS011;2971;52.420;7.080;2023-02-28T08:14:50;4.73;;;3.10;;
5890;SDS011;2971;52.420;7.080;2023-02-28T08:17:15;3.30;;;2.63;;
5890;SDS011;2971;52.420;7.080;2023-02-28T08:19:41;4.20;;;2.93;;
5890;SDS011;2971;52.420;7.080;2023-02-28T08:22:06;2.97;;;2.60;;
5890;SDS011;2971;52.420;7.080;2023-02-28T08:24:32;2.60;;;2.40;;
5890;SDS011;2971;52.420;7.080;2023-02-28T08:26:58;2.67;;;2.43;;
5890;SDS011;2971;52.420;7.080;2023-02-28T08:29:23;4.53;;;2.30;;
5890;SDS011;2971;52.420;7.080;2023-02-28T08:31:49;3.83;;;1.93;;
5890;SDS011;2971;52.420;7.080;2023-02-28T08:34:15;3.17;;;2.20;;
5890;SDS011;2971;52.420;7.080;2023-02-28T08:36:41;3.83;;;2.07;;
5890;SDS011;2971;52.420;7.080;2023-02-28T08:39:09;2.77;;;1.90;;
5890;SDS011;2971;52.420;7.080;2023-02-28T08:41:34;2.97;;;2.30;;
5890;SDS011;2971;52.420;7.080;2023-02-28T08:44:00;2.93;;;2.13;;
5890;SDS011;2971;52.420;7.080;2023-02-28T08:46:25;3.07;;;2.00;;
5890;SDS011;2971;52.420;7.080;2023-02-28T08:48:54;4.60;;;2.10;;
5890;SDS011;2971;52.420;7.080;2023-02-28T08:51:20;3.77;;;2.50;;
5890;SDS011;2971;52.420;7.080;2023-02-28T08:53:51;3.37;;;2.37;;
5890;SDS011;2971;52.420;7.080;2023-02-28T08:56:17;3.47;;;2.40;;
5890;SDS011;2971;52.420;7.080;2023-02-28T08:58:43;4.90;;;2.70;;
5890;SDS011;2971;52.420;7.080;2023-02-28T09:01:13;2.87;;;2.23;;
5890;SDS011;2971;52.420;7.080;2023-02-28T09:03:46;3.10;;;2.10;;
5890;SDS011;2971;52.420;7.080;2023-02-28T09:06:12;2.97;;;2.20;;
5890;SDS011;2971;52.420;7.080;2023-02-28T09:08:38;2.10;;;1.90;;
5890;SDS011;2971;52.420;7.080;2023-02-28T09:11:04;4.03;;;2.27;;
5890;SDS011;2971;52.420;7.080;2023-02-28T09:13:29;3.53;;;2.43;;
5890;SDS011;2971;52.420;7.080;2023-02-28T09:15:57;5.13;;;2.10;;
5890;SDS011;2971;52.420;7.080;2023-02-28T09:18:23;2.97;;;2.10;;
5890;SDS011;2971;52.420;7.080;2023-02-28T09:20:49;2.77;;;2.10;;
5890;SDS011;2971;52.420;7.080;2023-02-28T09:23:15;3.07;;;2.10;;
5890;SDS011;2971;52.420;7.080;2023-02-28T09:25:45;2.60;;;1.97;;
5890;SDS011;2971;52.420;7.080;2023-02-28T09:28:12;3.47;;;1.80;;
5890;SDS011;2971;52.420;7.080;2023-02-28T09:30:37;2.40;;;1.70;;
5890;SDS011;2971;52.420;7.080;2023-02-28T09:33:03;2.10;;;1.60;;
5890;SDS011;2971;52.420;7.080;2023-02-28T09:35:28;2.10;;;1.70;;
5890;SDS011;2971;52.420;7.080;2023-02-28T09:37:55;2.47;;;1.80;;
5890;SDS011;2971;52.420;7.080;2023-02-28T09:40:22;2.33;;;1.73;;
5890;SDS011;2971;52.420;7.080;2023-02-28T09:42:49;2.70;;;1.87;;
5890;SDS011;2971;52.420;7.080;2023-02-28T09:48:06;3.60;;;2.20;;
5890;SDS011;2971;52.420;7.080;2023-02-28T09:50:38;2.83;;;2.00;;
5890;SDS011;2971;52.420;7.080;2023-02-28T09:53:11;2.63;;;2.00;;
5890;SDS011;2971;52.420;7.080;2023-02-28T09:55:45;3.50;;;2.30;;
5890;SDS011;2971;52.420;7.080;2023-02-28T09:58:16;2.97;;;2.20;;
5890;SDS011;2971;52.420;7.080;2023-02-28T10:00:52;2.50;;;2.20;;
5890;SDS011;2971;52.420;7.080;2023-02-28T10:06:19;2.63;;;2.03;;
5890;SDS011;2971;52.420;7.080;2023-02-28T10:09:00;2.20;;;2.00;;
5890;SDS011;2971;52.420;7.080;2023-02-28T10:11:27;2.67;;;2.13;;
5890;SDS011;2971;52.420;7.080;2023-02-28T10:16:36;4.23;;;2.33;;
5890;SDS011;2971;52.420;7.080;2023-02-28T10:19:10;2.47;;;2.00;;
5890;SDS011;2971;52.420;7.080;2023-02-28T10:21:39;3.30;;;2.33;;
5890;SDS011;2971;52.420;7.080;2023-02-28T10:24:16;2.67;;;2.07;;
5890;SDS011;2971;52.420;7.080;2023-02-28T10:26:46;2.33;;;2.00;;
5890;SDS011;2971;52.420;7.080;2023-02-28T10:29:12;2.33;;;1.97;;
5890;SDS011;2971;52.420;7.080;2023-02-28T10:31:38;2.13;;;1.93;;
5890;SDS011;2971;52.420;7.080;2023-02-28T10:34:04;3.07;;;2.00;;
5890;SDS011;2971;52.420;7.080;2023-02-28T10:36:31;2.40;;;2.00;;
5890;SDS011;2971;52.420;7.080;2023-02-28T10:38:57;3.43;;;1.73;;
5890;SDS011;2971;52.420;7.080;2023-02-28T10:41:29;2.50;;;2.00;;
5890;SDS011;2971;52.420;7.080;2023-02-28T10:44:12;2.07;;;1.77;;
5890;SDS011;2971;52.420;7.080;2023-02-28T10:46:40;2.30;;;2.03;;
5890;SDS011;2971;52.420;7.080;2023-02-28T10:49:11;3.17;;;1.93;;
5890;SDS011;2971;52.420;7.080;2023-02-28T10:51:39;2.83;;;2.20;;
5890;SDS011;2971;52.420;7.080;2023-02-28T10:54:05;3.00;;;2.70;;
5890;SDS011;2971;52.420;7.080;2023-02-28T10:59:52;3.97;;;2.20;;
5890;SDS011;2971;52.420;7.080;2023-02-28T11:02:34;3.33;;;2.10;;
5890;SDS011;2971;52.420;7.080;2023-02-28T11:05:00;2.57;;;2.00;;
5890;SDS011;2971;52.420;7.080;2023-02-28T11:07:26;3.23;;;2.00;;
5890;SDS011;2971;52.420;7.080;2023-02-28T11:09:53;3.30;;;2.20;;
5890;SDS011;2971;52.420;7.080;2023-02-28T11:12:21;2.63;;;1.80;;
5890;SDS011;2971;52.420;7.080;2023-02-28T11:15:33;2.37;;;1.90;;
5890;SDS011;2971;52.420;7.080;2023-02-28T11:17:57;2.20;;;2.00;;
5890;SDS011;2971;52.420;7.080;2023-02-28T11:20:25;3.20;;;2.10;;
5890;SDS011;2971;52.420;7.080;2023-02-28T11:22:53;2.27;;;1.70;;
5890;SDS011;2971;52.420;7.080;2023-02-28T11:25:22;2.47;;;1.70;;
5890;SDS011;2971;52.420;7.080;2023-02-28T11:27:51;2.03;;;1.80;;
5890;SDS011;2971;52.420;7.080;2023-02-28T11:30:39;2.30;;;1.80;;
5890;SDS011;2971;52.420;7.080;2023-02-28T11:35:57;2.30;;;1.70;;
5890;SDS011;2971;52.420;7.080;2023-02-28T11:38:28;1.90;;;1.80;;
5890;SDS011;2971;52.420;7.080;2023-02-28T11:52:00;2.73;;;1.97;;
5890;SDS011;2971;52.420;7.080;2023-02-28T12:00:28;2.00;;;1.80;;
5890;SDS011;2971;52.420;7.080;2023-02-28T12:05:43;2.30;;;1.80;;
5890;SDS011;2971;52.420;7.080;2023-02-28T12:13:47;2.00;;;1.90;;
5890;SDS011;2971;52.420;7.080;2023-02-28T12:21:48;1.90;;;1.70;;
5890;SDS011;2971;52.420;7.080;2023-02-28T12:24:23;2.77;;;1.80;;
5890;SDS011;2971;52.420;7.080;2023-02-28T12:26:55;2.20;;;1.80;;
5890;SDS011;2971;52.420;7.080;2023-02-28T12:29:30;2.03;;;1.53;;
5890;SDS011;2971;52.420;7.080;2023-02-28T12:32:01;3.17;;;1.80;;
5890;SDS011;2971;52.420;7.080;2023-02-28T12:34:39;2.57;;;1.60;;
5890;SDS011;2971;52.420;7.080;2023-02-28T12:37:10;3.30;;;1.80;;
5890;SDS011;2971;52.420;7.080;2023-02-28T12:39:41;2.90;;;2.10;;
5890;SDS011;2971;52.420;7.080;2023-02-28T12:42:11;2.33;;;2.00;;
5890;SDS011;2971;52.420;7.080;2023-02-28T12:44:40;1.80;;;1.70;;
5890;SDS011;2971;52.420;7.080;2023-02-28T12:47:14;1.63;;;1.50;;
5890;SDS011;2971;52.420;7.080;2023-02-28T12:52:10;2.30;;;1.60;;
5890;SDS011;2971;52.420;7.080;2023-02-28T12:54:47;2.13;;;1.70;;
5890;SDS011;2971;52.420;7.080;2023-02-28T12:57:35;2.70;;;1.90;;
5890;SDS011;2971;52.420;7.080;2023-02-28T13:00:15;1.93;;;1.53;;
5890;SDS011;2971;52.420;7.080;2023-02-28T13:10:39;4.40;;;1.83;;
5890;SDS011;2971;52.420;7.080;2023-02-28T13:13:20;3.57;;;1.73;;
5890;SDS011;2971;52.420;7.080;2023-02-28T13:16:01;2.07;;;1.70;;
5890;SDS011;2971;52.420;7.080;2023-02-28T13:18:35;2.50;;;1.70;;
5890;SDS011;2971;52.420;7.080;2023-02-28T13:21:05;3.37;;;1.63;;
5890;SDS011;2971;52.420;7.080;2023-02-28T13:26:06;2.83;;;1.80;;
5890;SDS011;2971;52.420;7.080;2023-02-28T13:31:18;1.67;;;1.53;;
5890;SDS011;2971;52.420;7.080;2023-02-28T13:38:43;5.57;;;5.07;;
5890;SDS011;2971;52.420;7.080;2023-02-28T13:44:13;2.80;;;2.60;;
5890;SDS011;2971;52.420;7.080;2023-02-28T13:51:50;2.70;;;2.50;;
5890;SDS011;2971;52.420;7.080;2023-02-28T13:54:40;2.00;;;1.73;;
5890;SDS011;2971;52.420;7.080;2023-02-28T14:00:07;3.30;;;2.60;;
5890;SDS011;2971;52.420;7.080;2023-02-28T14:06:07;7.70;;;5.33;;
5890;SDS011;2971;52.420;7.080;2023-02-28T14:08:52;2.77;;;2.17;;
5890;SDS011;2971;52.420;7.080;2023-02-28T14:11:29;4.50;;;2.10;;
5890;SDS011;2971;52.420;7.080;2023-02-28T14:14:02;2.30;;;1.97;;
5890;SDS011;2971;52.420;7.080;2023-02-28T14:16:36;2.37;;;2.07;;
5890;SDS011;2971;52.420;7.080;2023-02-28T14:19:19;3.40;;;2.70;;
5890;SDS011;2971;52.420;7.080;2023-02-28T14:25:08;4.13;;;3.17;;
5890;SDS011;2971;52.420;7.080;2023-02-28T14:27:48;8.70;;;4.70;;
5890;SDS011;2971;52.420;7.080;2023-02-28T14:41:24;5.57;;;2.50;;
5890;SDS011;2971;52.420;7.080;2023-02-28T14:43:57;2.80;;;2.30;;
5890;SDS011;2971;52.420;7.080;2023-02-28T14:46:25;2.07;;;1.87;;
5890;SDS011;2971;52.420;7.080;2023-02-28T14:49:03;4.07;;;2.50;;
5890;SDS011;2971;52.420;7.080;2023-02-28T14:51:29;3.13;;;2.23;;
5890;SDS011;2971;52.420;7.080;2023-02-28T14:53:59;3.00;;;2.07;;
5890;SDS011;2971;52.420;7.080;2023-02-28T14:56:30;3.03;;;1.93;;
5890;SDS011;2971;52.420;7.080;2023-02-28T14:58:59;4.30;;;1.70;;
5890;SDS011;2971;52.420;7.080;2023-02-28T15:01:24;2.17;;;1.87;;
5890;SDS011;2971;52.420;7.080;2023-02-28T15:03:57;2.10;;;1.90;;
5890;SDS011;2971;52.420;7.080;2023-02-28T15:06:28;2.40;;;1.90;;
5890;SDS011;2971;52.420;7.080;2023-02-28T15:09:06;4.43;;;2.00;;
5890;SDS011;2971;52.420;7.080;2023-02-28T15:11:33;2.20;;;2.00;;
5890;SDS011;2971;52.420;7.080;2023-02-28T15:14:00;2.07;;;1.87;;
5890;SDS011;2971;52.420;7.080;2023-02-28T15:16:26;2.67;;;1.90;;
5890;SDS011;2971;52.420;7.080;2023-02-28T15:19:04;2.10;;;1.90;;
5890;SDS011;2971;52.420;7.080;2023-02-28T15:21:44;2.07;;;1.87;;
5890;SDS011;2971;52.420;7.080;2023-02-28T15:24:19;2.53;;;1.80;;
5890;SDS011;2971;52.420;7.080;2023-02-28T15:26:56;2.00;;;1.80;;
5890;SDS011;2971;52.420;7.080;2023-02-28T15:29:23;2.37;;;2.00;;
5890;SDS011;2971;52.420;7.080;2023-02-28T15:32:00;2.57;;;2.07;;
5890;SDS011;2971;52.420;7.080;2023-02-28T15:34:37;2.30;;;2.00;;
5890;SDS011;2971;52.420;7.080;2023-02-28T15:39:52;4.57;;;2.40;;
5890;SDS011;2971;52.420;7.080;2023-02-28T15:42:19;2.80;;;2.20;;
5890;SDS011;2971;52.420;7.080;2023-02-28T15:44:47;2.40;;;2.20;;
5890;SDS011;2971;52.420;7.080;2023-02-28T15:47:16;3.73;;;2.30;;
5890;SDS011;2971;52.420;7.080;2023-02-28T15:49:56;4.43;;;2.03;;
5890;SDS011;2971;52.420;7.080;2023-02-28T15:52:34;2.70;;;2.20;;
5890;SDS011;2971;52.420;7.080;2023-02-28T15:55:19;2.50;;;2.20;;
5890;SDS011;2971;52.420;7.080;2023-02-28T15:57:56;4.07;;;2.20;;
5890;SDS011;2971;52.420;7.080;2023-02-28T16:00:24;3.30;;;2.20;;
5890;SDS011;2971;52.420;7.080;2023-02-28T16:02:51;2.50;;;2.30;;
5890;SDS011;2971;52.420;7.080;2023-02-28T16:05:27;3.60;;;2.27;;
5890;SDS011;2971;52.420;7.080;2023-02-28T16:07:57;3.30;;;2.10;;
5890;SDS011;2971;52.420;7.080;2023-02-28T16:10:27;3.80;;;2.40;;
5890;SDS011;2971;52.420;7.080;2023-02-28T16:12:54;3.90;;;2.30;;
5890;SDS011;2971;52.420;7.080;2023-02-28T16:15:21;3.10;;;2.80;;
5890;SDS011;2971;52.420;7.080;2023-02-28T16:17:49;3.37;;;2.80;;
5890;SDS011;2971;52.420;7.080;2023-02-28T16:20:17;3.13;;;2.83;;
5890;SDS011;2971;52.420;7.080;2023-02-28T16:22:44;4.63;;;2.80;;
5890;SDS011;2971;52.420;7.080;2023-02-28T16:25:14;2.43;;;2.23;;
5890;SDS011;2971;52.420;7.080;2023-02-28T16:27:40;2.53;;;2.30;;
5890;SDS011;2971;52.420;7.080;2023-02-28T16:30:06;6.20;;;2.47;;
5890;SDS011;2971;52.420;7.080;2023-02-28T16:32:34;2.67;;;2.30;;
5890;SDS011;2971;52.420;7.080;2023-02-28T16:35:01;3.23;;;2.40;;
5890;SDS011;2971;52.420;7.080;2023-02-28T16:37:26;4.03;;;2.50;;
5890;SDS011;2971;52.420;7.080;2023-02-28T16:39:52;3.63;;;2.20;;
5890;SDS011;2971;52.420;7.080;2023-02-28T16:42:22;3.63;;;2.23;;
5890;SDS011;2971;52.420;7.080;2023-02-28T16:44:49;3.77;;;2.80;;
5890;SDS011;2971;52.420;7.080;2023-02-28T16:47:15;2.87;;;2.53;;
5890;SDS011;2971;52.420;7.080;2023-02-28T16:49:41;3.03;;;2.40;;
5890;SDS011;2971;52.420;7.080;2023-02-28T16:52:08;2.90;;;2.70;;
5890;SDS011;2971;52.420;7.080;2023-02-28T16:54:34;3.27;;;2.43;;
5890;SDS011;2971;52.420;7.080;2023-02-28T16:56:59;3.30;;;2.70;;
5890;SDS011;2971;52.420;7.080;2023-02-28T16:59:25;4.87;;;2.93;;
5890;SDS011;2971;52.420;7.080;2023-02-28T17:01:51;5.80;;;2.87;;
5890;SDS011;2971;52.420;7.080;2023-02-28T17:04:17;4.83;;;2.70;;
5890;SDS011;2971;52.420;7.080;2023-02-28T17:06:42;5.00;;;3.03;;
5890;SDS011;2971;52.420;7.080;2023-02-28T17:09:10;3.57;;;2.53;;
5890;SDS011;2971;52.420;7.080;2023-02-28T17:11:40;3.70;;;2.43;;
5890;SDS011;2971;52.420;7.080;2023-02-28T17:14:06;3.10;;;2.43;;
5890;SDS011;2971;52.420;7.080;2023-02-28T17:16:35;3.60;;;2.97;;
5890;SDS011;2971;52.420;7.080;2023-02-28T17:19:05;3.87;;;3.47;;
5890;SDS011;2971;52.420;7.080;2023-02-28T17:21:32;4.10;;;3.70;;
5890;SDS011;2971;52.420;7.080;2023-02-28T17:23:58;4.27;;;3.10;;
5890;SDS011;2971;52.420;7.080;2023-02-28T17:26:24;5.00;;;3.40;;
5890;SDS011;2971;52.420;7.080;2023-02-28T17:28:50;3.17;;;2.80;;
5890;SDS011;2971;52.420;7.080;2023-02-28T17:31:17;4.47;;;3.20;;
5890;SDS011;2971;52.420;7.080;2023-02-28T17:33:43;3.47;;;3.13;;
5890;SDS011;2971;52.420;7.080;2023-02-28T17:36:21;5.20;;;4.60;;
5890;SDS011;2971;52.420;7.080;2023-02-28T17:38:49;7.90;;;6.57;;
5890;SDS011;2971;52.420;7.080;2023-02-28T17:41:15;11.43;;;9.30;;
5890;SDS011;2971;52.420;7.080;2023-02-28T17:43:40;10.00;;;8.87;;